Time;durP1;ratioP1;P1;durP2;ratioP2;P2;SDS_P1;SDS_P2;PMS_P1;PMS_P2;Temp;Humidity;BMP_temperature;BMP_pressure;BME280_temperature;BME280_humidity;BME280_pressure;Samples;Min_cycle;Max_cycle;Signal;HPM_P1;HPM_P2
2023/09/30 00:00:08;;;;;;;;;;;;;;;16.77;45.99;100911.38;4946070;29;1129;-58
2023/09/30 00:02:36;;;;;;;;;;;;;;;16.74;45.55;100914.63;4954630;29;1117;-59
2023/09/30 00:05:03;;;;;;;;;;;;;;;16.71;45.54;100915.19;4957949;29;1065;-59
2023/09/30 00:07:29;;;;;;;;;;;;;;;16.58;45.29;100907.47;4957971;29;1196;-59
2023/09/30 00:09:54;;;;;;;;;;;;;;;16.61;45.04;100909.69;4946199;29;1147;-59
2023/09/30 00:12:20;;;;;;;;;;;;;;;16.72;45.27;100905.84;4951633;29;1050;-58
2023/09/30 00:14:48;;;;;;;;;;;;;;;17.14;46.55;100905.94;4940909;29;1124;-58
2023/09/30 00:17:14;;;;;;;;;;;;;;;16.86;46.47;100906.16;4951108;29;1907;-59
2023/09/30 00:19:40;;;;;;;;;;;;;;;16.77;45.86;100900.38;4951596;29;1081;-58
2023/09/30 00:22:05;;;;;;;;;;;;;;;16.70;45.52;100894.31;4957561;28;1101;-59
2023/09/30 00:24:31;;;;;;;;;;;;;;;16.65;45.47;100902.53;4957879;29;1025;-58
2023/09/30 00:26:56;;;;;;;;;;;;;;;16.69;44.92;100905.56;4957706;29;1164;-57
2023/09/30 00:29:21;;;;;;;;;;;;;;;16.67;44.81;100902.28;4945580;29;1116;-59
2023/09/30 00:31:47;;;;;;;;;;;;;;;16.62;44.64;100908.59;4956826;29;1133;-58
2023/09/30 00:34:13;;;;;;;;;;;;;;;16.54;44.70;100909.13;4957776;29;1105;-58
2023/09/30 00:36:39;;;;;;;;;;;;;;;17.23;46.10;100907.03;4953343;28;1125;-58
2023/09/30 00:39:07;;;;;;;;;;;;;;;16.79;46.18;100904.75;4943643;29;1994;-60
2023/09/30 00:41:33;;;;;;;;;;;;;;;16.70;45.96;100910.78;4960617;29;1132;-59
2023/09/30 00:43:59;;;;;;;;;;;;;;;16.72;45.56;100910.53;4961518;29;1110;-59
2023/09/30 00:46:34;;;;;;;;;;;;;;;16.69;45.08;100909.16;4961173;29;1025;-58
2023/09/30 00:49:00;;;;;;;;;;;;;;;16.63;44.87;100915.72;4948614;29;1053;-58
2023/09/30 00:51:25;;;;;;;;;;;;;;;16.57;44.75;100912.13;4959821;29;1113;-58
2023/09/30 00:53:51;;;;;;;;;;;;;;;16.56;44.65;100906.91;4960891;28;1129;-58
2023/09/30 00:56:18;;;;;;;;;;;;;;;16.51;44.49;100910.47;4949126;29;1157;-58
2023/09/30 00:58:44;;;;;;;;;;;;;;;16.52;44.42;100911.28;4960628;28;2010;-59
2023/09/30 01:01:09;;;;;;;;;;;;;;;16.51;44.20;100912.38;4948866;29;1139;-59
2023/09/30 01:03:36;;;;;;;;;;;;;;;17.16;46.10;100912.81;4958915;29;1070;-58
2023/09/30 01:06:01;;;;;;;;;;;;;;;16.73;46.48;100912.16;4952789;29;1039;-58
2023/09/30 01:08:27;;;;;;;;;;;;;;;16.71;45.86;100922.59;4954624;29;1225;-58
2023/09/30 01:10:53;;;;;;;;;;;;;;;16.54;45.48;100920.09;4949283;29;1150;-60
2023/09/30 01:13:18;;;;;;;;;;;;;;;16.56;45.01;100918.72;4946757;29;1050;-58
2023/09/30 01:15:44;;;;;;;;;;;;;;;16.54;44.93;100911.84;4962474;28;914;-58
2023/09/30 01:18:11;;;;;;;;;;;;;;;16.98;45.63;100916.09;4960715;29;1910;-58
2023/09/30 01:20:36;;;;;;;;;;;;;;;17.03;46.30;100919.66;4948668;29;1308;-58
2023/09/30 01:23:03;;;;;;;;;;;;;;;16.72;46.20;100918.78;4947544;29;1029;-58
2023/09/30 01:25:29;;;;;;;;;;;;;;;16.63;45.98;100917.63;4960866;29;1133;-59
2023/09/30 01:27:54;;;;;;;;;;;;;;;16.58;45.50;100929.44;4947267;29;907;-58
2023/09/30 01:30:22;;;;;;;;;;;;;;;16.57;45.14;100923.09;4960669;28;1209;-56
2023/09/30 01:32:48;;;;;;;;;;;;;;;16.52;44.85;100927.75;4960305;29;1124;-59
2023/09/30 01:35:14;;;;;;;;;;;;;;;16.45;44.82;100921.69;4953681;29;1062;-59
2023/09/30 01:37:40;;;;;;;;;;;;;;;16.70;45.11;100923.69;4954492;29;1910;-58
2023/09/30 01:40:11;;;;;;;;;;;;;;;17.03;46.20;100918.84;4959036;29;1120;-59
2023/09/30 01:42:37;;;;;;;;;;;;;;;16.76;45.95;100923.44;4960592;29;1026;-56
2023/09/30 01:45:03;;;;;;;;;;;;;;;16.71;45.83;100925.34;4958820;29;1161;-59
2023/09/30 01:47:28;;;;;;;;;;;;;;;16.60;45.31;100919.00;4958959;29;1290;-59
2023/09/30 01:49:54;;;;;;;;;;;;;;;16.58;45.04;100919.28;4959688;28;1128;-59
2023/09/30 01:52:20;;;;;;;;;;;;;;;17.15;46.47;100924.06;4945431;29;934;-59
2023/09/30 01:54:45;;;;;;;;;;;;;;;16.79;46.38;100921.22;4951760;29;1144;-58
2023/09/30 01:57:11;;;;;;;;;;;;;;;16.66;45.86;100926.16;4946513;29;1982;-59
2023/09/30 01:59:36;;;;;;;;;;;;;;;16.59;45.31;100918.19;4958827;29;1510;-58
2023/09/30 02:02:02;;;;;;;;;;;;;;;16.59;44.99;100920.94;4945961;29;1227;-60
2023/09/30 02:04:28;;;;;;;;;;;;;;;17.43;45.90;100922.69;4952051;29;904;-57
2023/09/30 02:06:53;;;;;;;;;;;;;;;16.88;46.44;100917.72;4957938;28;1145;-59
2023/09/30 02:09:19;;;;;;;;;;;;;;;16.69;46.06;100925.63;4949189;29;1166;-58
2023/09/30 02:11:45;;;;;;;;;;;;;;;16.63;45.74;100923.13;4957992;29;1053;-57
2023/09/30 02:14:11;;;;;;;;;;;;;;;17.33;46.59;100919.97;4949097;29;1137;-57
2023/09/30 02:16:38;;;;;;;;;;;;;;;16.98;46.45;100919.66;4956193;29;1151;-58
2023/09/30 02:19:04;;;;;;;;;;;;;;;16.74;46.27;100925.63;4959323;29;1981;-56
2023/09/30 02:21:29;;;;;;;;;;;;;;;16.71;45.56;100915.19;4956223;29;1154;-58
2023/09/30 02:23:55;;;;;;;;;;;;;;;16.72;45.44;100919.59;4949114;29;1038;-58
2023/09/30 02:26:21;;;;;;;;;;;;;;;16.57;45.31;100922.28;4958407;29;1584;-57
2023/09/30 02:28:47;;;;;;;;;;;;;;;16.66;44.89;100917.94;4948992;29;1331;-55
2023/09/30 02:31:13;;;;;;;;;;;;;;;17.39;45.75;100919.69;4958115;29;1132;-57
2023/09/30 02:33:39;;;;;;;;;;;;;;;16.99;46.08;100917.75;4959186;29;1068;-57
2023/09/30 02:36:07;;;;;;;;;;;;;;;16.81;45.88;100913.56;4959197;28;1173;-57
2023/09/30 02:38:34;;;;;;;;;;;;;;;16.68;45.58;100923.16;4959123;29;1914;-57
2023/09/30 02:41:02;;;;;;;;;;;;;;;16.51;45.54;100915.97;4953628;29;863;-57
2023/09/30 02:43:28;;;;;;;;;;;;;;;16.61;44.87;100915.16;4948317;29;1029;-57
2023/09/30 02:45:55;;;;;;;;;;;;;;;16.64;45.23;100911.88;4957715;29;1934;-56
2023/09/30 02:48:20;;;;;;;;;;;;;;;17.11;46.21;100921.06;4959300;29;1064;-57
2023/09/30 02:50:46;;;;;;;;;;;;;;;16.82;46.03;100916.03;4958903;29;1018;-58
2023/09/30 02:53:13;;;;;;;;;;;;;;;16.69;45.83;100917.38;4959017;29;1326;-57
2023/09/30 02:55:38;;;;;;;;;;;;;;;16.69;45.16;100913.78;4946489;29;1061;-58
2023/09/30 02:58:04;;;;;;;;;;;;;;;17.45;46.13;100907.56;4958970;29;1911;-59
2023/09/30 03:00:32;;;;;;;;;;;;;;;16.98;46.61;100918.84;4945065;29;1101;-57
2023/09/30 03:02:59;;;;;;;;;;;;;;;16.84;46.03;100910.28;4958193;29;1085;-58
2023/09/30 03:05:24;;;;;;;;;;;;;;;16.67;45.71;100914.06;4954473;29;999;-60
2023/09/30 03:07:53;;;;;;;;;;;;;;;16.62;45.43;100915.97;4959107;28;1153;-58
2023/09/30 03:10:23;;;;;;;;;;;;;;;16.59;45.05;100918.19;4958382;29;1144;-59
2023/09/30 03:12:49;;;;;;;;;;;;;;;16.79;45.47;100908.34;4958910;28;1096;-58
2023/09/30 03:15:15;;;;;;;;;;;;;;;17.23;46.79;100915.28;4943361;29;1128;-63
2023/09/30 03:17:41;;;;;;;;;;;;;;;16.82;46.50;100916.03;4949256;29;1977;-61
2023/09/30 03:20:11;;;;;;;;;;;;;;;16.80;45.71;100911.91;4957998;29;1034;-61
2023/09/30 03:22:37;;;;;;;;;;;;;;;16.71;45.47;100923.41;4958861;29;1061;-64
2023/09/30 03:25:06;;;;;;;;;;;;;;;17.42;46.21;100902.63;4945625;29;1085;-61
2023/09/30 03:27:32;;;;;;;;;;;;;;;16.89;46.55;100913.06;4954431;29;1121;-63
2023/09/30 03:29:58;;;;;;;;;;;;;;;16.79;46.23;100911.09;4956169;29;1140;-62
2023/09/30 03:32:24;;;;;;;;;;;;;;;16.77;45.55;100908.63;4948378;29;1133;-59
2023/09/30 03:34:52;;;;;;;;;;;;;;;17.64;45.98;100908.94;4952586;29;1031;-57
2023/09/30 03:37:17;;;;;;;;;;;;;;;17.07;46.46;100922.72;4949405;29;1966;-57
2023/09/30 03:39:43;;;;;;;;;;;;;;;16.84;46.23;100910.28;4945667;29;1105;-57
2023/09/30 03:42:11;;;;;;;;;;;;;;;16.77;45.81;100922.34;4947705;29;1080;-57
2023/09/30 03:44:37;;;;;;;;;;;;;;;16.87;45.16;100915.22;4955315;29;1077;-58
2023/09/30 03:47:03;;;;;;;;;;;;;;;16.67;44.94;100913.25;4958567;29;1201;-56
2023/09/30 03:49:28;;;;;;;;;;;;;;;16.73;44.51;100912.16;4957997;29;1112;-58
2023/09/30 03:51:54;;;;;;;;;;;;;;;17.13;45.34;100909.78;4958043;29;1018;-59
2023/09/30 03:54:19;;;;;;;;;;;;;;;17.01;46.50;100902.66;4945522;29;1113;-52
2023/09/30 03:56:46;;;;;;;;;;;;;;;16.85;46.23;100909.19;4957966;28;1401;-61
2023/09/30 03:59:12;;;;;;;;;;;;;;;16.70;45.97;100916.25;4958093;29;1983;-58
2023/09/30 04:01:40;;;;;;;;;;;;;;;16.68;45.23;100907.50;4957697;29;1029;-58
2023/09/30 04:04:07;;;;;;;;;;;;;;;17.47;46.21;100904.53;4956037;29;1096;-57
2023/09/30 04:06:32;;;;;;;;;;;;;;;17.22;47.76;100905.38;4946731;29;1211;-58
2023/09/30 04:08:59;;;;;;;;;;;;;;;17.07;47.44;100907.03;4943338;29;1164;-58
2023/09/30 04:11:25;;;;;;;;;;;;;;;16.93;46.96;100909.50;4956294;29;1185;-54
2023/09/30 04:13:50;;;;;;;;;;;;;;;16.77;46.52;100916.84;4945141;29;930;-58
2023/09/30 04:16:18;;;;;;;;;;;;;;;16.80;46.01;100912.72;4952073;29;1156;-52
2023/09/30 04:18:44;;;;;;;;;;;;;;;16.76;45.37;100912.47;4947096;28;1910;-51
2023/09/30 04:21:09;;;;;;;;;;;;;;;16.63;45.39;100909.41;4949457;29;1081;-51
2023/09/30 04:23:38;;;;;;;;;;;;;;;16.73;44.80;100910.25;4956883;29;1410;-52
2023/09/30 04:26:05;;;;;;;;;;;;;;;16.69;44.73;100911.06;4957492;29;1125;-56
2023/09/30 04:28:30;;;;;;;;;;;;;;;16.58;44.88;100910.22;4944775;29;1104;-52
2023/09/30 04:30:56;;;;;;;;;;;;;;;16.55;44.83;100910.75;4944199;29;1097;-53
2023/09/30 04:33:24;;;;;;;;;;;;;;;16.54;44.56;100904.44;4951277;29;1065;-54
2023/09/30 04:35:50;;;;;;;;;;;;;;;16.49;44.81;100906.34;4949254;29;1174;-53
2023/09/30 04:38:16;;;;;;;;;;;;;;;17.75;45.29;100905.91;4953282;29;1894;-53
2023/09/30 04:40:43;;;;;;;;;;;;;;;17.65;45.22;100905.91;4952188;29;1161;-51
2023/09/30 04:43:10;;;;;;;;;;;;;;;17.41;46.09;100906.47;4950708;29;990;-49
2023/09/30 04:45:36;;;;;;;;;;;;;;;17.20;46.85;100915.84;4954366;29;2814;-50
2023/09/30 04:48:02;;;;;;;;;;;;;;;17.10;47.15;100917.47;4952826;29;1359;-54
2023/09/30 04:50:27;;;;;;;;;;;;;;;17.04;47.45;100921.31;4952032;29;1421;-49
2023/09/30 04:52:53;;;;;;;;;;;;;;;16.98;47.67;100908.66;4957146;29;1204;-50
2023/09/30 04:55:19;;;;;;;;;;;;;;;16.90;47.84;100914.69;4956834;29;842;-51
2023/09/30 04:57:45;;;;;;;;;;;;;;;16.83;48.08;100916.84;4949892;29;1898;-50
2023/09/30 05:00:12;;;;;;;;;;;;;;;16.80;48.38;100920.16;4944767;29;1100;-50
2023/09/30 05:02:37;;;;;;;;;;;;;;;16.69;48.91;100911.91;4950140;29;1100;-52
2023/09/30 05:05:05;;;;;;;;;;;;;;;16.69;48.88;100925.63;4951223;29;1146;-46
2023/09/30 05:07:31;;;;;;;;;;;;;;;16.65;49.39;100931.91;4956717;29;880;-46
2023/09/30 05:09:57;;;;;;;;;;;;;;;16.56;49.63;100934.34;4956453;29;1363;-50
2023/09/30 05:12:23;;;;;;;;;;;;;;;16.57;49.50;100928.59;4949893;29;1133;-54
2023/09/30 05:14:48;;;;;;;;;;;;;;;16.50;49.71;100935.44;4949817;29;2381;-55
2023/09/30 05:17:14;;;;;;;;;;;;;;;16.40;50.03;100928.81;4949927;29;1899;-52
2023/09/30 05:19:39;;;;;;;;;;;;;;;16.42;50.18;100940.38;4938513;29;909;-52
2023/09/30 05:22:05;;;;;;;;;;;;;;;16.37;50.02;100932.09;4937895;29;1046;-50
2023/09/30 05:24:30;;;;;;;;;;;;;;;16.36;50.30;100941.41;4943088;28;1117;-53
2023/09/30 05:26:56;;;;;;;;;;;;;;;16.30;50.44;100936.16;4950084;28;1480;-50
2023/09/30 05:29:22;;;;;;;;;;;;;;;16.45;50.32;100941.72;4946491;29;1208;-52
2023/09/30 05:31:47;;;;;;;;;;;;;;;17.32;48.53;100946.63;4950095;29;919;-52
2023/09/30 05:34:13;;;;;;;;;;;;;;;16.85;49.56;100942.13;4941495;29;1029;-51
2023/09/30 05:36:39;;;;;;;;;;;;;;;16.65;50.23;100949.22;4959128;29;1041;-52
2023/09/30 05:39:04;;;;;;;;;;;;;;;16.55;50.45;100947.28;4957105;29;1910;-53
2023/09/30 05:41:33;;;;;;;;;;;;;;;16.49;50.61;100947.50;4950628;29;1126;-54
2023/09/30 05:43:59;;;;;;;;;;;;;;;16.40;50.85;100948.03;4959998;29;2490;-53
2023/09/30 05:46:25;;;;;;;;;;;;;;;16.39;50.91;100951.03;4947267;29;1078;-52
2023/09/30 05:48:50;;;;;;;;;;;;;;;16.34;51.02;100949.13;4960081;29;1104;-51
2023/09/30 05:51:16;;;;;;;;;;;;;;;16.32;51.09;100951.28;4947450;29;1141;-53
2023/09/30 05:53:41;;;;;;;;;;;;;;;16.31;51.34;100957.03;4959683;29;1430;-53
2023/09/30 05:56:07;;;;;;;;;;;;;;;16.77;50.67;100955.31;4947336;29;1141;-54
2023/09/30 05:58:33;;;;;;;;;;;;;;;17.29;49.32;100958.16;4959515;29;1906;-55
2023/09/30 06:01:00;;;;;;;;;;;;;;;16.82;50.39;100956.41;4956723;29;1691;-52
2023/09/30 06:03:29;;;;;;;;;;;;;;;16.69;50.92;100954.97;4948109;29;1173;-54
2023/09/30 06:05:55;;;;;;;;;;;;;;;16.57;50.97;100957.97;4940499;29;1155;-54
2023/09/30 06:08:21;;;;;;;;;;;;;;;16.55;51.35;100965.63;4956665;29;919;-54
2023/09/30 06:10:46;;;;;;;;;;;;;;;16.48;51.36;100965.91;4959445;29;1057;-50
2023/09/30 06:13:12;;;;;;;;;;;;;;;16.39;51.43;100965.56;4957335;28;1311;-54
2023/09/30 06:15:39;;;;;;;;;;;;;;;16.55;51.45;100965.63;4959483;29;2688;-55
2023/09/30 06:18:06;;;;;;;;;;;;;;;17.57;49.14;100956.78;4954645;28;1902;-54
2023/09/30 06:20:31;;;;;;;;;;;;;;;17.01;50.42;100959.50;4958677;28;1341;-54
2023/09/30 06:22:57;;;;;;;;;;;;;;;16.78;51.02;100958.88;4959066;28;1555;-55
2023/09/30 06:25:24;;;;;;;;;;;;;;;16.68;51.39;100954.16;4959334;29;1072;-53
2023/09/30 06:27:50;;;;;;;;;;;;;;;16.62;51.43;100960.75;4942417;29;1073;-53
2023/09/30 06:30:21;;;;;;;;;;;;;;;16.56;51.66;100967.31;4950959;29;1105;-53
2023/09/30 06:32:47;;;;;;;;;;;;;;;16.50;51.84;100968.38;4945874;29;1007;-53
2023/09/30 06:35:13;;;;;;;;;;;;;;;16.46;51.70;100962.59;4958854;28;1078;-54
2023/09/30 06:37:39;;;;;;;;;;;;;;;16.39;51.88;100960.09;4946115;29;1898;-55
2023/09/30 06:40:08;;;;;;;;;;;;;;;16.36;52.11;100954.31;4946312;29;1039;-55
2023/09/30 06:42:36;;;;;;;;;;;;;;;16.32;52.22;100955.94;4957303;29;1042;-54
2023/09/30 06:45:05;;;;;;;;;;;;;;;16.29;51.98;100957.31;4950298;29;2557;-55
2023/09/30 06:47:34;;;;;;;;;;;;;;;16.34;51.89;100962.84;4940883;29;1094;-54
2023/09/30 06:50:07;;;;;;;;;;;;;;;17.54;49.96;100964.75;4951056;28;1054;-54
2023/09/30 06:52:39;;;;;;;;;;;;;;;17.06;50.71;100965.00;4955118;29;1244;-55
2023/09/30 06:55:05;;;;;;;;;;;;;;;16.76;51.62;100959.13;4958623;29;977;-55
2023/09/30 06:57:31;;;;;;;;;;;;;;;16.67;51.85;100958.00;4946132;29;1979;-55
2023/09/30 06:59:57;;;;;;;;;;;;;;;16.59;51.85;100956.63;4957856;29;1019;-56
2023/09/30 07:02:23;;;;;;;;;;;;;;;16.52;52.11;100956.06;4958549;29;1081;-56
2023/09/30 07:04:49;;;;;;;;;;;;;;;16.43;52.28;100958.47;4958448;29;1136;-55
2023/09/30 07:07:15;;;;;;;;;;;;;;;16.40;52.38;100953.50;4955985;29;1211;-55
2023/09/30 07:09:40;;;;;;;;;;;;;;;16.86;51.66;100968.50;4958717;29;1116;-55
2023/09/30 07:12:06;;;;;;;;;;;;;;;17.26;50.76;100964.19;4954728;29;1028;-55
2023/09/30 07:14:32;;;;;;;;;;;;;;;16.83;52.02;100963.53;4949664;29;1824;-56
2023/09/30 07:16:57;;;;;;;;;;;;;;;16.67;52.51;100963.50;4954429;29;1119;-56
2023/09/30 07:19:23;;;;;;;;;;;;;;;16.66;52.43;100961.88;4944405;29;1985;-55
2023/09/30 07:21:48;;;;;;;;;;;;;;;16.56;52.48;100956.31;4943363;29;1100;-55
2023/09/30 07:24:14;;;;;;;;;;;;;;;16.61;52.15;100959.09;4956803;29;1046;-56
2023/09/30 07:26:40;;;;;;;;;;;;;;;16.45;52.58;100957.38;4945432;29;1104;-55
2023/09/30 07:29:05;;;;;;;;;;;;;;;16.38;52.47;100952.97;4957798;29;1049;-55
2023/09/30 07:31:35;;;;;;;;;;;;;;;16.45;52.56;100960.94;4957231;29;1044;-52
2023/09/30 07:34:01;;;;;;;;;;;;;;;16.53;52.42;100954.13;4948642;28;1066;-57
2023/09/30 07:36:26;;;;;;;;;;;;;;;17.52;50.84;100956.78;4950606;28;1398;-54
2023/09/30 07:38:52;;;;;;;;;;;;;;;16.94;51.98;100954.25;4944679;28;1906;-55
2023/09/30 07:41:18;;;;;;;;;;;;;;;16.73;52.37;100959.69;4956067;29;990;-54
2023/09/30 07:43:44;;;;;;;;;;;;;;;16.66;52.53;100956.38;4952959;29;1924;-54
2023/09/30 07:46:09;;;;;;;;;;;;;;;16.64;52.50;100958.53;4940452;28;1232;-55
2023/09/30 07:48:35;;;;;;;;;;;;;;;16.56;52.70;100964.56;4938652;29;1034;-54
2023/09/30 07:51:00;;;;;;;;;;;;;;;16.52;52.81;100961.53;4955877;29;1033;-55
2023/09/30 07:53:26;;;;;;;;;;;;;;;16.50;52.54;100968.38;4956364;29;1148;-54
2023/09/30 07:55:54;;;;;;;;;;;;;;;16.45;52.57;100974.66;4955278;29;1025;-55
2023/09/30 07:58:19;;;;;;;;;;;;;;;16.39;52.63;100954.59;4957238;29;1898;-55
2023/09/30 08:00:45;;;;;;;;;;;;;;;16.35;52.96;100964.47;4957278;29;1164;-54
2023/09/30 08:03:11;;;;;;;;;;;;;;;16.36;52.71;100960.63;4957881;29;1022;-53
2023/09/30 08:05:37;;;;;;;;;;;;;;;17.00;52.11;100968.81;4957181;29;1076;-55
2023/09/30 08:08:03;;;;;;;;;;;;;;;17.33;51.40;100963.94;4949939;29;1076;-53
2023/09/30 08:10:29;;;;;;;;;;;;;;;16.90;52.47;100964.13;4955934;29;1085;-54
2023/09/30 08:12:57;;;;;;;;;;;;;;;16.75;52.86;100962.97;4946583;29;1045;-52
2023/09/30 08:15:23;;;;;;;;;;;;;;;16.69;53.01;100961.31;4956215;29;1837;-53
2023/09/30 08:17:48;;;;;;;;;;;;;;;16.62;53.08;100965.41;4946453;29;1973;-54
2023/09/30 08:20:14;;;;;;;;;;;;;;;16.60;52.77;100961.00;4956207;29;1089;-53
2023/09/30 08:22:40;;;;;;;;;;;;;;;16.50;53.11;100957.41;4957328;29;1068;-53
2023/09/30 08:25:06;;;;;;;;;;;;;;;16.46;53.19;100961.78;4944842;29;1176;-55
2023/09/30 08:27:32;;;;;;;;;;;;;;;16.45;53.05;100960.13;4945636;29;1144;-55
2023/09/30 08:29:57;;;;;;;;;;;;;;;16.38;53.04;100949.38;4938870;28;1142;-53
2023/09/30 08:32:23;;;;;;;;;;;;;;;16.76;52.86;100956.41;4949317;29;1021;-52
2023/09/30 08:34:49;;;;;;;;;;;;;;;17.46;51.38;100952.41;4945178;29;1231;-52
2023/09/30 08:37:14;;;;;;;;;;;;;;;16.96;52.71;100938.34;4947527;29;1005;-54
2023/09/30 08:39:40;;;;;;;;;;;;;;;16.79;53.06;100949.53;4950026;29;1902;-55
2023/09/30 08:42:08;;;;;;;;;;;;;;;16.69;53.03;100947.59;4946707;29;1149;-53
2023/09/30 08:44:33;;;;;;;;;;;;;;;16.67;52.98;100946.22;4947868;29;2386;-55
2023/09/30 08:46:59;;;;;;;;;;;;;;;16.60;53.20;100946.44;4957159;29;1085;-55
2023/09/30 08:49:24;;;;;;;;;;;;;;;16.59;52.92;100933.81;4953923;29;1191;-53
2023/09/30 08:51:50;;;;;;;;;;;;;;;16.47;53.51;100946.97;4948770;29;1068;-53
2023/09/30 08:54:16;;;;;;;;;;;;;;;16.45;53.45;100932.69;4955966;29;1097;-52
2023/09/30 08:56:41;;;;;;;;;;;;;;;16.46;53.35;100939.81;4955750;28;1107;-53
2023/09/30 08:59:07;;;;;;;;;;;;;;;16.40;53.13;100938.97;4952774;28;1980;-53
2023/09/30 09:01:32;;;;;;;;;;;;;;;16.40;53.38;100936.22;4949815;28;1540;-52
2023/09/30 09:03:58;;;;;;;;;;;;;;;16.36;53.20;100946.09;4952867;28;1425;-54
2023/09/30 09:06:24;;;;;;;;;;;;;;;16.32;53.32;100945.78;4946333;28;1088;-54
2023/09/30 09:08:50;;;;;;;;;;;;;;;17.45;51.80;100935.06;4957222;29;1118;-52
2023/09/30 09:11:15;;;;;;;;;;;;;;;17.06;52.67;100943.84;4960399;29;1018;-52
2023/09/30 09:13:49;;;;;;;;;;;;;;;16.82;53.16;100938.00;4947512;29;1862;-50
2023/09/30 09:16:15;;;;;;;;;;;;;;;16.69;53.32;100933.03;4960170;29;1044;-55
2023/09/30 09:18:41;;;;;;;;;;;;;;;16.66;53.34;100930.81;4960480;29;1902;-54
2023/09/30 09:21:16;;;;;;;;;;;;;;;16.58;53.33;100932.19;4947565;28;1085;-53
2023/09/30 09:23:45;;;;;;;;;;;;;;;16.50;53.62;100930.78;4942900;29;923;-55
2023/09/30 09:26:11;;;;;;;;;;;;;;;16.51;53.24;100926.09;4941365;29;1065;-55
2023/09/30 09:28:38;;;;;;;;;;;;;;;16.47;53.36;100927.75;4947670;29;1544;-55
2023/09/30 09:31:20;;;;;;;;;;;;;;;16.39;53.73;100924.41;4951744;29;1042;-54
2023/09/30 09:33:46;;;;;;;;;;;;;;;16.42;53.39;100923.91;4956601;29;907;-52
2023/09/30 09:36:11;;;;;;;;;;;;;;;16.32;53.56;100923.84;4959866;29;1081;-54
2023/09/30 09:38:43;;;;;;;;;;;;;;;16.58;53.34;100915.72;4960033;29;1910;-53
2023/09/30 09:41:08;;;;;;;;;;;;;;;17.55;51.84;100922.41;4957402;29;1092;-53
2023/09/30 09:43:34;;;;;;;;;;;;;;;17.05;53.14;100922.13;4949436;29;1959;-54
2023/09/30 09:46:03;;;;;;;;;;;;;;;16.84;53.57;100918.50;4956448;29;901;-52
2023/09/30 09:48:29;;;;;;;;;;;;;;;16.76;53.38;100917.94;4959790;29;1053;-53
2023/09/30 09:50:54;;;;;;;;;;;;;;;16.70;53.58;100927.25;4959676;29;1010;-50
2023/09/30 09:53:20;;;;;;;;;;;;;;;16.65;53.54;100921.78;4969098;28;1366;-52
2023/09/30 09:55:45;;;;;;;;;;;;;;;16.63;53.39;100920.38;4958691;29;1141;-52
2023/09/30 09:58:11;;;;;;;;;;;;;;;16.55;53.84;100917.06;4952186;28;1914;-52
2023/09/30 10:00:37;;;;;;;;;;;;;;;16.55;53.67;100927.22;4959155;29;1032;-54
2023/09/30 10:03:02;;;;;;;;;;;;;;;16.54;53.45;100925.59;4956342;29;1018;-52
2023/09/30 10:05:28;;;;;;;;;;;;;;;16.55;53.44;100918.97;4948132;29;1013;-53
2023/09/30 10:07:56;;;;;;;;;;;;;;;16.60;53.27;100913.50;4946628;29;1058;-47
2023/09/30 10:10:23;;;;;;;;;;;;;;;16.53;53.38;100913.75;4959122;28;1029;-52
2023/09/30 10:12:49;;;;;;;;;;;;;;;16.49;53.58;100887.94;4957653;29;1125;-49
2023/09/30 10:15:26;;;;;;;;;;;;;;;16.46;53.83;100895.91;4959336;29;2255;-51
2023/09/30 10:18:03;;;;;;;;;;;;;;;16.45;53.71;100894.25;4947768;28;1906;-51
2023/09/30 10:20:29;;;;;;;;;;;;;;;16.49;53.74;100906.34;4953681;28;1335;-51
2023/09/30 10:23:13;;;;;;;;;;;;;;;17.70;52.16;100892.16;4949774;29;1050;-52
2023/09/30 10:25:40;;;;;;;;;;;;;;;17.12;53.19;100894.41;4958900;29;1023;-49
2023/09/30 10:28:24;;;;;;;;;;;;;;;16.89;53.87;100891.09;4959561;29;1025;-48
2023/09/30 10:31:12;;;;;;;;;;;;;;;16.81;53.75;100897.09;4948243;29;979;-51
2023/09/30 10:33:56;;;;;;;;;;;;;;;16.78;53.91;100884.72;4939952;29;894;-52
2023/09/30 10:36:26;;;;;;;;;;;;;;;16.71;53.78;100887.72;4952774;29;998;-52
2023/09/30 10:38:51;;;;;;;;;;;;;;;16.60;54.04;100894.28;4949692;29;1891;-54
2023/09/30 10:41:37;;;;;;;;;;;;;;;16.64;53.76;100900.06;4955785;29;1105;-53
2023/09/30 10:44:21;;;;;;;;;;;;;;;16.54;54.19;100887.97;4952116;29;2267;-54
2023/09/30 10:46:47;;;;;;;;;;;;;;;17.55;52.57;100889.44;4948815;28;1033;-50
2023/09/30 10:49:24;;;;;;;;;;;;;;;17.38;53.02;100882.28;4959054;29;1136;-50
2023/09/30 10:51:53;;;;;;;;;;;;;;;16.99;53.85;100898.53;4959059;29;1029;-54
2023/09/30 10:54:23;;;;;;;;;;;;;;;16.89;54.18;100891.91;4946144;29;1370;-51
2023/09/30 10:56:48;;;;;;;;;;;;;;;16.84;54.13;100897.34;4949592;29;1118;-48
2023/09/30 10:59:20;;;;;;;;;;;;;;;16.79;53.89;100885.53;4953397;29;1906;-49
2023/09/30 11:01:46;;;;;;;;;;;;;;;16.78;53.74;100879.22;4939302;29;1018;-52
2023/09/30 11:04:11;;;;;;;;;;;;;;;16.72;53.71;100872.91;4939081;29;1493;-53
2023/09/30 11:06:39;;;;;;;;;;;;;;;16.66;53.85;100879.50;4952112;29;990;-56
2023/09/30 11:09:08;;;;;;;;;;;;;;;16.64;54.05;100867.94;4953803;29;1069;-56
2023/09/30 11:11:34;;;;;;;;;;;;;;;16.62;54.10;100867.41;4939393;29;1025;-55
2023/09/30 11:14:00;;;;;;;;;;;;;;;16.62;53.64;100872.91;4954834;29;1878;-50
2023/09/30 11:16:25;;;;;;;;;;;;;;;16.55;53.92;100872.31;4951930;29;1061;-52
2023/09/30 11:18:54;;;;;;;;;;;;;;;16.62;53.72;100878.38;4943484;28;1918;-51
2023/09/30 11:21:20;;;;;;;;;;;;;;;17.46;53.06;100875.44;4950211;28;1310;-55
2023/09/30 11:23:45;;;;;;;;;;;;;;;17.36;53.17;100870.78;4951976;28;1328;-55
2023/09/30 11:26:13;;;;;;;;;;;;;;;17.02;53.97;100865.81;4962179;28;1014;-53
2023/09/30 11:28:43;;;;;;;;;;;;;;;16.94;53.99;100866.34;4958391;28;1306;-52
2023/09/30 11:31:10;;;;;;;;;;;;;;;16.87;53.99;100866.63;4944693;29;1547;-51
2023/09/30 11:33:49;;;;;;;;;;;;;;;16.86;53.78;100866.91;4939309;29;1005;-54
2023/09/30 11:36:15;;;;;;;;;;;;;;;16.74;54.01;100865.19;4954013;29;1287;-54
2023/09/30 11:38:44;;;;;;;;;;;;;;;16.71;54.18;100860.25;4956413;28;1906;-53
2023/09/30 11:41:10;;;;;;;;;;;;;;;16.63;54.07;100851.75;4941964;28;1393;-47
2023/09/30 11:43:36;;;;;;;;;;;;;;;16.64;54.16;100862.44;4947978;29;2484;-54
2023/09/30 11:46:04;;;;;;;;;;;;;;;16.57;54.21;100854.47;4951248;29;1072;-48
2023/09/30 11:48:30;;;;;;;;;;;;;;;16.56;54.18;100854.75;4958025;29;1085;-54
2023/09/30 11:50:56;;;;;;;;;;;;;;;16.73;54.23;100852.59;4944918;29;1180;-51
2023/09/30 11:53:22;;;;;;;;;;;;;;;17.67;52.88;100851.47;4956451;29;1417;-51
2023/09/30 11:55:47;;;;;;;;;;;;;;;17.09;54.03;100833.38;4944914;29;1084;-53
2023/09/30 11:58:18;;;;;;;;;;;;;;;16.96;54.17;100844.09;4947205;29;1906;-51
2023/09/30 12:00:44;;;;;;;;;;;;;;;16.91;54.38;100842.19;4938517;29;1157;-51
2023/09/30 12:03:10;;;;;;;;;;;;;;;16.77;54.54;100834.47;4948564;29;1110;-53
2023/09/30 12:05:36;;;;;;;;;;;;;;;16.82;53.98;100843.81;4957846;29;1069;-52
2023/09/30 12:08:02;;;;;;;;;;;;;;;16.76;54.19;100840.25;4957723;29;1116;-52
2023/09/30 12:10:28;;;;;;;;;;;;;;;16.73;54.02;100829.78;4947695;29;1228;-49
2023/09/30 12:12:53;;;;;;;;;;;;;;;16.67;54.05;100837.19;4949394;29;1124;-50
2023/09/30 12:15:20;;;;;;;;;;;;;;;16.66;53.95;100835.56;4957518;29;2437;-52
2023/09/30 12:17:45;;;;;;;;;;;;;;;16.65;53.94;100844.03;4957527;29;1906;-46
2023/09/30 12:20:14;;;;;;;;;;;;;;;16.63;53.81;100838.84;4957140;29;973;-47
2023/09/30 12:22:39;;;;;;;;;;;;;;;16.96;54.29;100819.38;4955575;29;905;-54
2023/09/30 12:25:06;;;;;;;;;;;;;;;17.52;53.09;100830.31;4952961;29;1044;-57
2023/09/30 12:27:32;;;;;;;;;;;;;;;17.10;54.24;100828.75;4949193;29;1086;-50
2023/09/30 12:29:57;;;;;;;;;;;;;;;16.98;54.26;100817.19;4953039;29;1220;-51
2023/09/30 12:32:23;;;;;;;;;;;;;;;16.88;54.34;100812.50;4949563;28;1006;-56
2023/09/30 12:34:49;;;;;;;;;;;;;;;16.80;54.41;100819.34;4954081;29;1129;-54
2023/09/30 12:37:14;;;;;;;;;;;;;;;16.78;54.09;100827.06;4952283;29;1066;-49
2023/09/30 12:39:40;;;;;;;;;;;;;;;16.79;54.03;100822.38;4957435;28;1997;-55
2023/09/30 12:42:08;;;;;;;;;;;;;;;16.70;54.29;100814.69;4952100;29;1040;-48
2023/09/30 12:44:34;;;;;;;;;;;;;;;16.71;53.94;100816.34;4947827;29;1896;-45